Pagina principale
METAR-TAF:

METAR-TAF

Aeroporti :

Aeroporto di Taranto-Grottaglie

Taranto, Italia

latitudine: 40-31N, longitudine: 017-24E, altezza: 64 m

Osservazione

Il bollettino è stato emesso 1 ora e 11 minuti fa, alle 15:50 UTC
Vento 11 kt da nord
Temperature 21°C
Umidità 53%
Pressione 1013 hPa
Visibilità 10 km o più
Nubi sparse ad un'altezza di 4000 ft

METAR: LIBG 311550Z 36011KT 9999 SCT040 21/11 Q1013

Ora: 19:01 (17:01 UTC)

Previsione

Il bollettino è stato emesso 3 ore e 1 minuti fa, alle 14:00 UTC
Previsione valida dal 31 alle 15 UTC al 31 alle 24 UTC
Vento 10 kt da sud-ovest
Visibilità 10 km o più
Nubi sparse ad un'altezza di 2500 ft
Evoluzione graduale
dal 31 alle 15 UTC al 31 alle 17 UTC
Vento 5 kt da direzioni variabili

TAF: LIBG 311400Z 3115/3124 23010KT 9999 SCT025 BECMG 3115/3117 VRB05KT

Osservazioni e previsioni meteorologiche di più di 4000 aeroporti (messaggi METAR e TAF).

Le stazioni disponibili sono rappresentate dai dischi gialli e rossi sulla carta.

Puntare il mouse per vedere il nome della stazione.

Clicca sopra per visualizzare le osservazioni e previsioni meteorologiche.

Per cambiare la mappa : fare clic sui pulsanti verdi con una croce nera per ingrandire, il pulsante verde con un trattino per diminuire, o sulla freccia verde per le mappe adiacenti.


METAR-TAF: